page 3077 of 1009964 registered users

eBook PostsUsers

  1. 0fresenai registered @ 2011-04-21 18:13:00, last login @ 2011-04-21 18:16:18
  2. 0ashleyQuan registered @ 2011-04-21 18:15:11, last login @ 2011-04-21 18:15:11
  3. 0Lirlcorie registered @ 2011-04-21 18:15:39, last login @ 2011-04-21 18:15:39
  4. 1DanielWright registered @ 2011-04-21 18:17:35, last login @ 2011-04-21 18:17:35
  5. 0princeheart registered @ 2011-04-21 18:18:28, last login @ 2011-04-21 18:18:28
  6. 0hidvegi registered @ 2011-04-21 18:19:45, last login @ 2011-04-21 18:19:45
  7. 0annisafn registered @ 2011-04-21 18:21:20, last login @ 2011-04-21 18:31:37
  8. 0sucdaica registered @ 2011-04-21 18:21:33, last login @ 2011-04-21 18:24:47
  9. 0AcitteeOffesy registered @ 2011-04-21 18:24:52, last login @ 2011-04-21 18:53:43
  10. 0purushottam registered @ 2011-04-21 18:25:42, last login @ 2011-04-21 18:25:42
  11. 0Azizahmn registered @ 2011-04-21 18:30:53, last login @ 2011-04-21 18:30:53
  12. 0mowcow3 registered @ 2011-04-21 18:32:25, last login @ 2011-04-21 18:32:25
  13. 0shoaib_bazmi registered @ 2011-04-21 18:35:48, last login @ 2011-04-21 18:38:44
  14. 0phodgibboro registered @ 2011-04-21 18:36:13, last login @ 2011-04-21 18:36:13
  15. 0phanibommina registered @ 2011-04-21 18:36:43, last login @ 2011-04-21 18:43:48
  16. 0shangda registered @ 2011-04-21 18:37:44, last login @ 2011-04-21 18:37:44
  17. 0tinhcoonline registered @ 2011-04-21 18:39:00, last login @ 2011-04-21 18:39:00
  18. 0dileeprathi registered @ 2011-04-21 18:39:38, last login @ 2011-04-21 18:39:38
  19. 0nnxxzz registered @ 2011-04-21 18:43:35, last login @ 2011-04-21 18:43:35
  20. 0Sahil_shah91 registered @ 2011-04-21 18:45:13, last login @ 2011-04-21 18:49:05
  21. 0tisomsytvoainz registered @ 2011-04-21 18:46:18, last login @ 2011-04-21 18:46:18
  22. 0deenaden registered @ 2011-04-21 18:48:37, last login @ 2011-04-21 18:48:37
  23. 0EBOOKEE_site registered @ 2011-04-21 18:52:06, last login @ 2011-04-21 18:52:06
  24. 0assaubbic registered @ 2011-04-21 18:59:22, last login @ 2011-04-21 18:59:22
  25. 0MooreZaid registered @ 2011-04-21 19:00:49, last login @ 2011-04-21 19:00:49
  26. 0Tubsbuito registered @ 2011-04-21 19:03:01, last login @ 2011-04-21 19:03:01
  27. 0MAForsythe registered @ 2011-04-21 19:03:06, last login @ 2011-04-21 19:10:35
  28. 0shubhangi_agarwal29 registered @ 2011-04-21 19:05:57, last login @ 2011-04-21 19:05:57
  29. 0grationjampet registered @ 2011-04-21 19:06:51, last login @ 2011-04-21 19:06:51
  30. 01arbicardy registered @ 2011-04-21 19:07:29, last login @ 2011-04-21 19:07:29
  31. 0reedur registered @ 2011-04-21 19:12:11, last login @ 2011-04-21 19:12:11
  32. 0igrice6445 registered @ 2011-04-21 19:15:17, last login @ 2011-04-21 19:15:17
  33. 0oxqomaflozinoma registered @ 2011-04-21 19:15:23, last login @ 2011-04-21 19:15:23
  34. 0cochoa8 registered @ 2011-04-21 19:17:59, last login @ 2011-04-21 19:17:59
  35. 0Conquerer registered @ 2011-04-21 19:18:12, last login @ 2011-04-21 19:18:12
  36. 0123123tt registered @ 2011-04-21 19:22:45, last login @ 2011-04-21 19:22:45
  37. 0jojolete registered @ 2011-04-21 19:22:46, last login @ 2011-04-21 19:22:46
  38. 0strawberry1984 registered @ 2011-04-21 19:26:41, last login @ 2011-04-21 19:26:41
  39. 0josophen registered @ 2011-04-21 19:27:30, last login @ 2011-04-21 19:27:30
  40. 0Candy10 registered @ 2011-04-21 19:28:20, last login @ 2011-04-21 19:28:20
  41. 0vikilin registered @ 2011-04-21 19:32:59, last login @ 2011-04-21 19:32:59
  42. 0kavitadsx registered @ 2011-04-21 19:35:32, last login @ 2011-04-21 19:35:32
  43. 0GeorgeLogg registered @ 2011-04-21 19:36:52, last login @ 2011-04-21 19:36:52
  44. 0rht2912 registered @ 2011-04-21 19:38:30, last login @ 2011-04-21 19:38:30
  45. 0jeiffe registered @ 2011-04-21 19:41:05, last login @ 2011-04-21 19:41:05
  46. 0sakyachan registered @ 2011-04-21 19:42:26, last login @ 2011-04-21 19:44:49
  47. 0limhueipyn registered @ 2011-04-21 19:43:48, last login @ 2011-04-21 19:43:48
  48. 0Ecpfwxgojkuwr registered @ 2011-04-21 19:51:24, last login @ 2011-04-21 19:51:24
  49. 0coolone registered @ 2011-04-21 19:52:25, last login @ 2011-04-21 19:53:33
  50. 0hyprman registered @ 2011-04-21 19:54:03, last login @ 2011-04-21 19:54:03
  51. 0mfelsabbagh registered @ 2011-04-21 19:55:13, last login @ 2011-04-21 19:55:13
  52. 0Coriel registered @ 2011-04-21 19:58:26, last login @ 2011-04-21 19:58:26
  53. 0floqflozflsxaayca registered @ 2011-04-21 19:58:58, last login @ 2011-04-21 19:58:58
  54. 0Narscissus registered @ 2011-04-21 20:08:12, last login @ 2011-04-21 20:08:12
  55. 0RParis registered @ 2011-04-21 20:10:16, last login @ 2011-04-21 20:10:16
  56. 0remenia registered @ 2011-04-21 20:11:02, last login @ 2011-04-21 20:11:02
  57. 0mnazar registered @ 2011-04-21 20:11:44, last login @ 2011-04-21 20:11:44
  58. 0felipebrandao registered @ 2011-04-21 20:23:10, last login @ 2011-04-21 20:23:10
  59. 0Altetawally registered @ 2011-04-21 20:27:41, last login @ 2011-04-21 20:27:41
  60. 0dexOrejas registered @ 2011-04-21 20:31:53, last login @ 2011-04-21 20:31:53
  61. 0ajayada registered @ 2011-04-21 20:33:03, last login @ 2011-04-21 20:33:03
  62. 0FrankDFD registered @ 2011-04-21 20:33:04, last login @ 2011-04-21 20:33:04
  63. 0joz registered @ 2011-04-21 20:34:38, last login @ 2011-04-21 20:34:38
  64. 0deborah001 registered @ 2011-04-21 20:39:07, last login @ 2011-04-21 20:39:07
  65. 0def0 registered @ 2011-04-21 20:40:05, last login @ 2011-04-21 20:40:29
  66. 0Eecdbpdhpjfcx registered @ 2011-04-21 20:41:05, last login @ 2011-04-21 20:41:05
  67. 0afsinzlizycsgaa registered @ 2011-04-21 20:41:42, last login @ 2011-04-21 20:41:42
  68. 0talkman registered @ 2011-04-21 20:43:40, last login @ 2011-04-21 20:43:40
  69. 0jcow registered @ 2011-04-21 20:51:25, last login @ 2011-04-21 20:51:25
  70. 0kinetic registered @ 2011-04-21 20:51:32, last login @ 2011-04-21 20:52:35
  71. 0guido registered @ 2011-04-21 21:01:58, last login @ 2011-04-21 21:01:58
  72. 0deaxel registered @ 2011-04-21 21:02:24, last login @ 2011-04-21 21:02:24
  73. 0dianka76 registered @ 2011-04-21 21:03:21, last login @ 2011-04-21 21:03:21
  74. 0geti23 registered @ 2011-04-21 21:10:15, last login @ 2011-04-21 21:13:21
  75. 0Poohbear registered @ 2011-04-21 21:10:37, last login @ 2011-04-21 21:11:21
  76. 0ahmadgigs86 registered @ 2011-04-21 21:13:26, last login @ 2011-04-21 21:13:26
  77. 0teccanwk registered @ 2011-04-21 21:16:12, last login @ 2011-04-21 21:16:12
  78. 0santacause registered @ 2011-04-21 21:21:22, last login @ 2011-04-21 21:21:22
  79. 0leasepzycsmogra registered @ 2011-04-21 21:25:13, last login @ 2011-04-21 21:25:13
  80. 0Assitosotoria registered @ 2011-04-21 21:28:39, last login @ 2011-04-21 21:28:39
  81. 0Daveling registered @ 2011-04-21 21:34:00, last login @ 2011-04-21 21:34:00
  82. 0VondaSandry registered @ 2011-04-21 21:35:49, last login @ 2011-04-21 21:35:49
  83. 0gareas registered @ 2011-04-21 21:38:15, last login @ 2011-04-21 21:38:29
  84. 0trews registered @ 2011-04-21 21:44:17, last login @ 2011-04-21 21:46:17
  85. 0byncenvetry registered @ 2011-04-21 21:49:37, last login @ 2011-04-21 21:49:37
  86. 0vafaei registered @ 2011-04-21 21:56:13, last login @ 2011-04-21 21:56:13
  87. 0tommytest registered @ 2011-04-21 21:56:40, last login @ 2011-04-21 21:58:45
  88. 0tazim registered @ 2011-04-21 22:03:09, last login @ 2011-04-21 22:05:12
  89. 0billaramesh registered @ 2011-04-21 22:03:42, last login @ 2011-04-21 22:03:42
  90. 0SvetaBeloglaz registered @ 2011-04-21 22:06:13, last login @ 2011-04-21 22:06:13
  91. 0salehsiddiqui registered @ 2011-04-21 22:06:25, last login @ 2011-04-21 22:06:25
  92. 0lestroaflozgrxaa registered @ 2011-04-21 22:07:28, last login @ 2011-04-21 22:07:28
  93. 0bandan2683 registered @ 2011-04-21 22:07:45, last login @ 2011-04-21 22:07:45
  94. 0Son registered @ 2011-04-21 22:09:25, last login @ 2011-04-21 22:09:25
  95. 0princeLeban registered @ 2011-04-21 22:25:20, last login @ 2011-04-21 22:25:20
  96. 0korrickgabs registered @ 2011-04-21 22:30:39, last login @ 2011-04-21 22:30:39
  97. 0xboxsold registered @ 2011-04-21 22:34:58, last login @ 2011-04-21 22:48:25
  98. 0hardrockgirl94 registered @ 2011-04-21 22:55:46, last login @ 2011-04-21 22:55:46
  99. 0alirezajalali78 registered @ 2011-04-21 22:55:57, last login @ 2011-04-21 22:55:57
  100. 0omoxaomomatroa registered @ 2011-04-21 22:56:01, last login @ 2011-04-21 22:56:01
  101. 0hardrockgirl1994 registered @ 2011-04-21 23:00:09, last login @ 2011-04-21 23:00:09

More...

[3087] [3086] [3085] [3084] [3083] [3082] [3081] [3080] [3079] [3078] [3077] [3076] [3075] [3074] [3073] [3072] [3071] [3070] [3069] [3068] ...[1]
Back to Top